»·PEaware :: N6182G KSQL-O60

N6182G :: KSQL-O60

FLIGHT INFORMATION

Flight Status: Arrived
Operator: Privately registered:
United States
More flights under this callsign
Pilot: Nathan P. (3026)
Aircraft: CESSNA 182 SKYLANE
(C182)
More flights by this aircraft type
Origin: KSQL San Carlos
United States
Destination: O60 Cloverdale Mun
United States
More flights between these airports :: More routes between these airports
Route: +HADLY V27 STINS V25 PYE V301 STS
File this flight plan on PilotEdge
Remarks:
Altitude:
(Current/Filed)
4,000ft
Speed:
(Current/Filed)
120kts
Departed: 11-Nov-17 09:17 AM
Arrived: 11-Nov-17 10:16 AM
Distance/Time
Traveled:
84nm/0:58
Distance/Time
To Go:
Arrived

Flight Plot

Page will automatically refresh every two minutes.

Flight plan parsing failed; only flown route is shown


Map Options




Map Legend


Flown Route
Filed Route
Departure Airport
Arrival Airport
Navaid (VOR, NDB)
Fix

Horizontal Profiles

Position Reports

Time Latitude Longitude Heading Altitude Ground
Speed
11-Nov-17 09:06 37.514971 -122.250867 319 8ft 0kts
11-Nov-17 09:07 37.514971 -122.250867 319 8ft 0kts
11-Nov-17 09:08 37.514973 -122.250869 319 8ft 0kts
11-Nov-17 09:09 37.514976 -122.250873 319 8ft 0kts
11-Nov-17 09:10 37.514979 -122.250876 319 8ft 0kts
11-Nov-17 09:11 37.514983 -122.250880 319 8ft 0kts
11-Nov-17 09:12 37.514986 -122.250884 319 8ft 0kts
11-Nov-17 09:13 37.514989 -122.250887 319 8ft 0kts
11-Nov-17 09:14 37.514992 -122.250890 319 8ft 0kts
11-Nov-17 09:15 37.514995 -122.250893 319 8ft 0kts
11-Nov-17 09:16 37.514998 -122.250896 319 8ft 0kts
11-Nov-17 09:17 37.515001 -122.250900 319 8ft 0kts
11-Nov-17 09:18 37.515004 -122.250903 319 8ft 0kts
11-Nov-17 09:19 37.515007 -122.250906 319 8ft 0kts
11-Nov-17 09:20 37.514575 -122.251864 287 8ft 6kts
11-Nov-17 09:21 37.514436 -122.252439 136 8ft 0kts
11-Nov-17 09:22 37.502940 -122.238189 127 404ft 82kts
11-Nov-17 09:23 37.482583 -122.229408 184 1229ft 84kts
11-Nov-17 09:24 37.458617 -122.231866 182 2043ft 89kts
11-Nov-17 09:25 37.434047 -122.232395 182 2831ft 89kts
11-Nov-17 09:26 37.405126 -122.233245 183 3371ft 125kts
11-Nov-17 09:27 37.370860 -122.235762 211 3857ft 119kts
11-Nov-17 09:28 37.349428 -122.265892 259 4100ft 126kts
11-Nov-17 09:29 37.360156 -122.309017 284 4011ft 136kts
11-Nov-17 09:30 37.367975 -122.355677 281 4014ft 135kts
11-Nov-17 09:31 37.374934 -122.399979 280 4341ft 113kts
11-Nov-17 09:32 37.380070 -122.433100 279 5039ft 81kts
11-Nov-17 09:33 37.384188 -122.460171 278 5601ft 78kts
11-Nov-17 09:34 37.388416 -122.487343 278 6075ft 87kts
11-Nov-17 09:35 37.394591 -122.526001 280 6006ft 127kts
11-Nov-17 09:36 37.401510 -122.569054 287 5999ft 125kts
11-Nov-17 09:37 37.431884 -122.587469 336 6005ft 126kts
11-Nov-17 09:38 37.465193 -122.602410 338 6002ft 127kts
11-Nov-17 09:39 37.498613 -122.616772 339 6001ft 127kts
11-Nov-17 09:40 37.532053 -122.631124 339 6003ft 127kts
11-Nov-17 09:41 37.565623 -122.645529 339 6005ft 127kts
11-Nov-17 09:42 37.599339 -122.660008 339 6007ft 128kts
11-Nov-17 09:43 37.633199 -122.674561 339 6008ft 128kts
11-Nov-17 09:44 37.667184 -122.689175 339 6010ft 128kts
11-Nov-17 09:45 37.701090 -122.703782 339 6010ft 129kts
11-Nov-17 09:46 37.735064 -122.718429 339 6012ft 129kts
11-Nov-17 09:47 37.769113 -122.733123 339 6015ft 129kts
11-Nov-17 09:48 37.803080 -122.747795 339 6018ft 129kts
11-Nov-17 09:49 37.834846 -122.761531 339 6021ft 129kts
11-Nov-17 09:50 37.868805 -122.776227 339 6023ft 129kts
11-Nov-17 09:51 37.902740 -122.790920 339 6025ft 129kts
11-Nov-17 09:52 37.936826 -122.805708 339 6025ft 129kts
11-Nov-17 09:53 37.970783 -122.820439 339 6028ft 129kts
11-Nov-17 09:54 38.004709 -122.835181 339 6030ft 129kts
11-Nov-17 09:55 38.039001 -122.850109 339 6032ft 130kts
11-Nov-17 09:56 38.073497 -122.865124 339 6033ft 131kts
11-Nov-17 09:57 38.109798 -122.863996 5 6035ft 132kts
11-Nov-17 09:58 38.146604 -122.858963 4 6037ft 132kts
11-Nov-17 09:59 38.183295 -122.854058 4 6040ft 132kts
11-Nov-17 10:00 38.220053 -122.849155 4 6040ft 133kts
11-Nov-17 10:01 38.257017 -122.844226 4 6037ft 134kts
11-Nov-17 10:02 38.293997 -122.839292 4 6032ft 133kts
11-Nov-17 10:03 38.326199 -122.834989 4 6029ft 133kts
11-Nov-17 10:04 38.363153 -122.830042 5 6027ft 133kts
11-Nov-17 10:05 38.399970 -122.825112 5 6024ft 133kts
11-Nov-17 10:06 38.436775 -122.820185 5 6022ft 133kts
11-Nov-17 10:07 38.473749 -122.815224 5 6021ft 133kts
11-Nov-17 10:08 38.506721 -122.810975 359 6018ft 133kts
11-Nov-17 10:09 38.536764 -122.825829 335 6014ft 88kts
11-Nov-17 10:10 38.562494 -122.839495 336 5143ft 121kts
11-Nov-17 10:11 38.592408 -122.855617 329 4110ft 95kts
11-Nov-17 10:12 38.607935 -122.867296 30 815ft 135kts
11-Nov-17 10:13 38.621582 -122.864159 230 1556ft 97kts
11-Nov-17 10:14 38.632199 -122.886474 351 2079ft 109kts
11-Nov-17 10:15 38.653456 -122.900452 311 2500ft 74kts
11-Nov-17 10:16 38.670760 -122.921488 325 2525ft 100kts
11-Nov-17 10:17 38.695175 -122.936738 333 2149ft 104kts
11-Nov-17 10:18 38.717208 -122.960026 308 1494ft 88kts
11-Nov-17 10:19 38.738364 -122.964144 329 1508ft 77kts
11-Nov-17 10:20 38.759214 -122.979871 327 803ft 113kts
11-Nov-17 10:21 38.777718 -122.993549 334 275ft 25kts
11-Nov-17 10:22 38.779256 -122.995166 155 275ft 10kts
11-Nov-17 10:23 38.774692 -122.992500 277 275ft 8kts
11-Nov-17 10:24 38.775264 -122.993366 248 275ft 0kts
11-Nov-17 10:25 38.775265 -122.993363 248 275ft 0kts
11-Nov-17 10:26 38.775281 -122.993337 241 275ft 0kts
11-Nov-17 10:27 38.775281 -122.993337 241 275ft 0kts
11-Nov-17 10:28 38.775281 -122.993337 241 275ft 0kts
11-Nov-17 10:29 38.775281 -122.993337 241 275ft 0kts
11-Nov-17 10:30 38.775281 -122.993337 241 275ft 0kts

Navigation Log

Ident Type
Flight plan parsing failed, navigation log unavailable